Accueil
METAR-TAF:

METAR-TAF

Aéroports :

Hartford, Connecticut, États-Unis

latitude: 41-44-06N, longitude: 072-39-06W, altitude: 5 m

Observation

Le bulletin a été fait il y a 48 minutes, à 12:53 UTC
Vent 3 kt de sud/sud-est
Température 26°C
Humidité 61%
Pression 1008 hPa
Visibilité: 16.1 km
Ciel clair

METAR: KHFD 131253Z COR 15003KT SCT120 10SM CLR 26/18 A2976 RMK AO2 SLP077 T02610183

Heure: 09:41 (13:41 UTC)


TAF: absent

Observations et prévisions météorologiques de plus de 4000 aéroports (messages METAR et TAF).

Les stations disponibles sont représentées par des disques jaunes et rouges sur la carte.

Passer la souris dessus pour voir le nom de la station.

Cliquer dessus pour voir les observations et prévisions météorologiques.

Pour changer de carte: cliquez sur les boutons verts avec une croix noire pour zoomer, sur le bouton vert avec un tiret pour effectuer un zoom arrière, ou sur les flèches vertes pour les cartes adjacentes.


METAR-TAF: